createdAt,value
2022-11-05T00:05:31.364Z,10.1
2022-11-05T00:11:23.206Z,10
2022-11-05T00:17:19.364Z,10
2022-11-05T00:23:10.582Z,9.9
2022-11-05T00:29:02.739Z,9.9
2022-11-05T00:34:56.501Z,10
2022-11-05T00:40:50.553Z,10
2022-11-05T00:46:41.678Z,9.8
2022-11-05T00:52:38.996Z,10
2022-11-05T00:58:30.376Z,9.9
2022-11-05T01:04:24.757Z,9.9
2022-11-05T01:10:17.969Z,9.9
2022-11-05T01:16:09.900Z,9.9
2022-11-05T01:22:10.121Z,9.7
2022-11-05T01:28:03.344Z,9.8
2022-11-05T01:33:54.536Z,9.8
2022-11-05T01:39:51.592Z,9.5
2022-11-05T01:45:44.465Z,9.5
2022-11-05T01:51:36.992Z,9.6
2022-11-05T01:57:43.381Z,9.5
2022-11-05T02:03:41.788Z,9.4
2022-11-05T02:09:33.453Z,9.3
2022-11-05T02:15:33.620Z,9.2
2022-11-05T02:21:30.543Z,9.2
2022-11-05T02:27:23.012Z,9.1
2022-11-05T02:33:13.894Z,9.1
2022-11-05T02:39:13.728Z,9.1
2022-11-05T02:45:17.601Z,9
2022-11-05T02:51:25.333Z,9.1
2022-11-05T02:57:17.082Z,9.1
2022-11-05T03:03:13.853Z,9.1
2022-11-05T03:09:10.193Z,9
2022-11-05T03:15:00.992Z,8.9
2022-11-05T03:21:05.200Z,9
2022-11-05T03:26:57.208Z,9
2022-11-05T03:32:48.188Z,9.1
2022-11-05T03:38:52.881Z,9.1
2022-11-05T03:44:53.187Z,8.9
2022-11-05T03:51:01.396Z,8.9
2022-11-05T03:56:54.458Z,8.5
2022-11-05T04:02:51.065Z,8.8
2022-11-05T04:08:44.323Z,9
2022-11-05T04:14:38.740Z,9
2022-11-05T04:20:53.034Z,9
2022-11-05T04:26:57.595Z,8.8
2022-11-05T04:32:47.170Z,8.9
2022-11-05T04:38:49.523Z,8.9
2022-11-05T04:44:59.872Z,9
2022-11-05T04:50:50.731Z,9
2022-11-05T04:56:52.888Z,9
2022-11-05T05:02:58.123Z,8.9
2022-11-05T05:14:58.763Z,8.8
2022-11-05T05:20:50.643Z,8.6
2022-11-05T05:26:42.923Z,8.6
2022-11-05T05:32:35.362Z,8.4
2022-11-05T05:38:52.414Z,8.4
2022-11-05T05:44:43.444Z,8.3
2022-11-05T05:50:44.611Z,8.2
2022-11-05T05:56:38.244Z,8.2
2022-11-05T06:02:34.002Z,8.1
2022-11-05T06:08:29.805Z,8.1
2022-11-05T06:14:20.787Z,7.8
2022-11-05T06:20:14.405Z,7.8
2022-11-05T06:26:07.700Z,7.7
2022-11-05T06:32:05.355Z,7.7
2022-11-05T06:37:57.509Z,7.6
2022-11-05T06:43:50.665Z,7.7
2022-11-05T06:49:54.435Z,7.4
2022-11-05T06:55:46.959Z,7.5
2022-11-05T07:01:46.660Z,7.6
2022-11-05T07:07:40.669Z,7.5
2022-11-05T07:13:34.091Z,7.7
2022-11-05T07:19:26.147Z,7.6
2022-11-05T07:25:19.305Z,7.7
2022-11-05T07:31:13.410Z,7.8
2022-11-05T07:37:24.453Z,7.9
2022-11-05T07:43:28.378Z,8
2022-11-05T07:49:20.059Z,7.8
2022-11-05T07:55:17.380Z,7.9
2022-11-05T08:01:09.444Z,7.8
2022-11-05T08:07:10.628Z,7.9
2022-11-05T08:13:05.086Z,8
2022-11-05T08:18:59.344Z,8
2022-11-05T08:24:52.578Z,8.1
2022-11-05T08:30:54.522Z,7.7
2022-11-05T08:36:47.413Z,8.1
2022-11-05T08:42:45.280Z,8.2
2022-11-05T10:07:49.893Z,9.8
2022-11-05T10:13:59.552Z,10
2022-11-05T10:19:51.628Z,10.2
2022-11-05T10:25:43.093Z,10.4
2022-11-05T10:31:35.604Z,10.5
2022-11-05T10:37:25.989Z,10.5
2022-11-05T10:43:22.925Z,10.7
2022-11-05T10:49:17.654Z,10.7
2022-11-05T10:55:09.951Z,10.9
2022-11-05T11:01:02.229Z,10.9
2022-11-05T11:06:55.027Z,11
2022-11-05T11:12:45.680Z,11
2022-11-05T11:18:40.369Z,11.1
2022-11-05T11:24:39.207Z,11.3
2022-11-05T11:30:42.695Z,11.6
2022-11-05T11:36:32.774Z,11.7
2022-11-05T11:42:28.649Z,12.1
2022-11-05T11:48:21.231Z,12
2022-11-05T11:54:43.881Z,12.2
2022-11-05T12:00:34.120Z,12.4
2022-11-05T12:06:30.271Z,12.4
2022-11-05T12:12:21.259Z,12.2
2022-11-05T12:18:11.883Z,12.2
2022-11-05T12:24:02.774Z,12.2
2022-11-05T12:29:55.355Z,12.2
2022-11-05T12:35:48.950Z,12.1
2022-11-05T12:41:48.261Z,12
2022-11-05T12:47:45.896Z,11.8
2022-11-05T12:53:37.345Z,11.7
2022-11-05T12:59:26.480Z,11.8
2022-11-05T13:05:18.473Z,11.7
2022-11-05T13:11:08.806Z,11.6
2022-11-05T13:16:59.523Z,11.7
2022-11-05T13:22:49.763Z,11.6
2022-11-05T13:28:40.399Z,11.7
2022-11-05T13:34:34.917Z,11.6
2022-11-05T13:40:28.440Z,11.6
2022-11-05T13:46:23.795Z,11.7
2022-11-05T13:52:17.894Z,11.7
2022-11-05T13:59:18.444Z,11.7
2022-11-05T14:05:13.066Z,11.8
2022-11-05T14:11:04.040Z,11.7
2022-11-05T14:17:05.015Z,11.6
2022-11-05T14:22:55.441Z,11.5
2022-11-05T14:28:54.036Z,11.6
2022-11-05T14:34:57.049Z,11.5
2022-11-05T14:40:48.410Z,11.5
2022-11-05T14:46:39.475Z,11.4
2022-11-05T14:52:30.132Z,11.4
2022-11-05T14:58:20.973Z,11.4
2022-11-05T15:04:10.870Z,11.3
2022-11-05T15:10:10.461Z,11.2
2022-11-05T15:16:02.034Z,11.3
2022-11-05T15:21:52.617Z,11.1
2022-11-05T15:27:45.111Z,11.1
2022-11-05T15:33:36.276Z,11
2022-11-05T15:39:30.405Z,10.8
2022-11-05T15:45:22.224Z,10.7
2022-11-05T15:51:15.088Z,10.7
2022-11-05T15:57:07.623Z,10.6
2022-11-05T16:03:03.563Z,10.6
2022-11-05T16:08:58.607Z,10.5
2022-11-05T16:15:06.130Z,10.4
2022-11-05T16:21:01.387Z,10.4
2022-11-05T16:27:07.902Z,10.3
2022-11-05T16:33:05.792Z,10.2
2022-11-05T16:38:56.295Z,10.3
2022-11-05T16:44:52.635Z,10.1
2022-11-05T16:50:46.813Z,10.1
2022-11-05T16:56:44.718Z,10.1
2022-11-05T17:03:01.259Z,10
2022-11-05T17:21:47.140Z,10
2022-11-05T17:27:37.849Z,9.7
2022-11-05T17:33:38.711Z,9.8
2022-11-05T17:46:46.076Z,9.8
2022-11-05T17:52:37.141Z,9.6
2022-11-05T17:58:27.358Z,9.7
2022-11-05T18:04:19.539Z,9.6
2022-11-05T18:10:09.899Z,9.4
2022-11-05T18:16:01.637Z,9.3
2022-11-05T18:21:54.036Z,9.3
2022-11-05T18:27:45.198Z,9.3
2022-11-05T18:33:36.811Z,9.2
2022-11-05T18:39:26.605Z,9.1
2022-11-05T18:45:26.963Z,9.2
2022-11-05T18:51:19.934Z,9.2
2022-11-05T18:57:11.618Z,9.1
2022-11-05T19:03:02.022Z,9.1
2022-11-05T19:08:53.012Z,9.2
2022-11-05T19:14:44.199Z,9.1
2022-11-05T19:20:37.880Z,9.1
2022-11-05T19:26:29.875Z,9.1
2022-11-05T19:32:25.129Z,9.1
2022-11-05T19:38:15.419Z,9.1
2022-11-05T19:44:07.253Z,9.1
2022-11-05T19:49:57.690Z,9.1
2022-11-05T19:55:49.335Z,9.1
2022-11-05T20:01:41.745Z,9.2
2022-11-05T20:07:33.790Z,9.2
2022-11-05T20:13:24.983Z,9.1
2022-11-05T20:19:15.821Z,9.2
2022-11-05T20:25:06.250Z,9.2
2022-11-05T20:30:56.911Z,9.1
2022-11-05T20:36:47.102Z,9.2
2022-11-05T20:42:38.596Z,9
2022-11-05T20:48:29.868Z,9
2022-11-05T20:54:21.380Z,9.1
2022-11-05T21:00:12.005Z,9
2022-11-05T21:06:02.725Z,8.9
2022-11-05T21:11:54.043Z,8.9
2022-11-05T21:17:46.074Z,8.9
2022-11-05T21:23:36.636Z,8.9
2022-11-05T21:29:28.149Z,8.9
2022-11-05T21:35:19.708Z,8.8
2022-11-05T21:41:10.470Z,8.9
2022-11-05T21:47:01.461Z,8.8
2022-11-05T21:52:52.197Z,8.7
2022-11-05T21:58:43.866Z,8.7
2022-11-05T22:04:32.861Z,8.8
2022-11-05T22:10:23.145Z,8.7
2022-11-05T22:16:13.187Z,8.7
2022-11-05T22:22:03.913Z,8.6
2022-11-05T22:27:54.897Z,8.6
2022-11-05T22:33:47.864Z,8.6
2022-11-05T22:39:38.909Z,8.6
2022-11-05T22:45:31.644Z,8.6
2022-11-05T22:51:22.829Z,8.4
2022-11-05T22:57:14.740Z,8.4
2022-11-05T23:03:05.713Z,8.4
2022-11-05T23:08:58.478Z,8.4
2022-11-05T23:14:51.562Z,8.4
2022-11-05T23:20:42.850Z,8.4
2022-11-05T23:26:34.669Z,8.3
2022-11-05T23:32:26.678Z,8.3
2022-11-05T23:38:17.311Z,8.4
2022-11-05T23:44:08.148Z,8.4
2022-11-05T23:49:58.357Z,8.3
2022-11-05T23:55:48.582Z,8.3
